sensor_id;sensor_type;location;lat;lon;timestamp;P1;durP1;ratioP1;P2;durP2;ratioP2
46377;SDS011;32083;47.360;9.650;2023-09-07T04:04:59;11.60;;;10.50;;
46377;SDS011;32083;47.360;9.650;2023-09-07T04:07:31;11.88;;;10.77;;
46377;SDS011;32083;47.360;9.650;2023-09-07T04:09:58;11.45;;;10.35;;
46377;SDS011;32083;47.360;9.650;2023-09-07T04:12:24;14.27;;;11.73;;
46377;SDS011;32083;47.360;9.650;2023-09-07T04:14:51;12.45;;;11.25;;
46377;SDS011;32083;47.360;9.650;2023-09-07T04:17:16;12.68;;;11.13;;
46377;SDS011;32083;47.360;9.650;2023-09-07T04:19:42;11.70;;;10.52;;
46377;SDS011;32083;47.360;9.650;2023-09-07T04:22:10;13.27;;;11.38;;
46377;SDS011;32083;47.360;9.650;2023-09-07T04:24:36;11.85;;;10.63;;
46377;SDS011;32083;47.360;9.650;2023-09-07T04:27:03;11.60;;;10.50;;
46377;SDS011;32083;47.360;9.650;2023-09-07T04:29:29;11.77;;;10.02;;
46377;SDS011;32083;47.360;9.650;2023-09-07T04:31:55;13.65;;;9.75;;
46377;SDS011;32083;47.360;9.650;2023-09-07T04:34:22;10.95;;;9.85;;
46377;SDS011;32083;47.360;9.650;2023-09-07T04:36:48;12.48;;;10.00;;
46377;SDS011;32083;47.360;9.650;2023-09-07T04:39:14;14.30;;;9.98;;
46377;SDS011;32083;47.360;9.650;2023-09-07T04:41:40;11.68;;;10.57;;
46377;SDS011;32083;47.360;9.650;2023-09-07T04:44:07;11.68;;;10.55;;
46377;SDS011;32083;47.360;9.650;2023-09-07T04:46:33;11.48;;;10.43;;
46377;SDS011;32083;47.360;9.650;2023-09-07T04:48:59;13.13;;;11.20;;
46377;SDS011;32083;47.360;9.650;2023-09-07T04:51:25;12.98;;;11.68;;
46377;SDS011;32083;47.360;9.650;2023-09-07T04:53:51;14.68;;;10.93;;
46377;SDS011;32083;47.360;9.650;2023-09-07T04:56:17;12.60;;;11.30;;
46377;SDS011;32083;47.360;9.650;2023-09-07T04:58:43;12.15;;;10.98;;
46377;SDS011;32083;47.360;9.650;2023-09-07T05:01:10;12.18;;;10.20;;
46377;SDS011;32083;47.360;9.650;2023-09-07T05:03:37;16.00;;;11.65;;
46377;SDS011;32083;47.360;9.650;2023-09-07T05:06:05;13.55;;;12.18;;
46377;SDS011;32083;47.360;9.650;2023-09-07T05:08:32;15.65;;;14.05;;
46377;SDS011;32083;47.360;9.650;2023-09-07T05:10:58;14.52;;;12.40;;
46377;SDS011;32083;47.360;9.650;2023-09-07T05:13:26;11.80;;;10.57;;
46377;SDS011;32083;47.360;9.650;2023-09-07T05:15:52;15.27;;;11.70;;
46377;SDS011;32083;47.360;9.650;2023-09-07T05:18:19;12.73;;;10.57;;
46377;SDS011;32083;47.360;9.650;2023-09-07T05:20:46;14.23;;;10.75;;
46377;SDS011;32083;47.360;9.650;2023-09-07T05:23:16;12.80;;;11.50;;
46377;SDS011;32083;47.360;9.650;2023-09-07T05:25:54;14.93;;;11.82;;
46377;SDS011;32083;47.360;9.650;2023-09-07T05:28:20;12.00;;;10.75;;
46377;SDS011;32083;47.360;9.650;2023-09-07T05:30:48;13.00;;;11.70;;
46377;SDS011;32083;47.360;9.650;2023-09-07T05:33:14;13.90;;;11.38;;
46377;SDS011;32083;47.360;9.650;2023-09-07T05:35:42;14.73;;;11.25;;
46377;SDS011;32083;47.360;9.650;2023-09-07T05:38:10;11.68;;;10.57;;
46377;SDS011;32083;47.360;9.650;2023-09-07T05:40:36;12.70;;;11.45;;
46377;SDS011;32083;47.360;9.650;2023-09-07T05:43:04;15.85;;;11.75;;
46377;SDS011;32083;47.360;9.650;2023-09-07T05:45:31;18.92;;;13.95;;
46377;SDS011;32083;47.360;9.650;2023-09-07T05:48:02;16.35;;;13.48;;
46377;SDS011;32083;47.360;9.650;2023-09-07T05:50:28;18.63;;;14.25;;
46377;SDS011;32083;47.360;9.650;2023-09-07T05:52:54;14.73;;;13.32;;
46377;SDS011;32083;47.360;9.650;2023-09-07T05:55:20;18.70;;;13.95;;
46377;SDS011;32083;47.360;9.650;2023-09-07T05:57:46;20.23;;;13.05;;
46377;SDS011;32083;47.360;9.650;2023-09-07T06:00:14;13.25;;;11.63;;
46377;SDS011;32083;47.360;9.650;2023-09-07T06:02:42;13.25;;;11.82;;
46377;SDS011;32083;47.360;9.650;2023-09-07T06:05:09;12.20;;;11.00;;
46377;SDS011;32083;47.360;9.650;2023-09-07T06:07:36;12.05;;;10.65;;
46377;SDS011;32083;47.360;9.650;2023-09-07T06:10:02;13.82;;;10.75;;
46377;SDS011;32083;47.360;9.650;2023-09-07T06:12:30;15.82;;;12.27;;
46377;SDS011;32083;47.360;9.650;2023-09-07T06:14:57;13.82;;;11.02;;
46377;SDS011;32083;47.360;9.650;2023-09-07T06:17:23;12.90;;;11.10;;
46377;SDS011;32083;47.360;9.650;2023-09-07T06:19:49;12.75;;;11.45;;
46377;SDS011;32083;47.360;9.650;2023-09-07T06:22:15;16.75;;;12.75;;
46377;SDS011;32083;47.360;9.650;2023-09-07T06:24:41;14.85;;;12.85;;
46377;SDS011;32083;47.360;9.650;2023-09-07T06:27:07;14.50;;;12.70;;
46377;SDS011;32083;47.360;9.650;2023-09-07T06:29:33;12.65;;;11.35;;
46377;SDS011;32083;47.360;9.650;2023-09-07T06:31:59;15.13;;;13.48;;
46377;SDS011;32083;47.360;9.650;2023-09-07T06:34:25;12.52;;;11.00;;
46377;SDS011;32083;47.360;9.650;2023-09-07T06:36:51;13.75;;;11.70;;
46377;SDS011;32083;47.360;9.650;2023-09-07T06:39:17;13.10;;;11.77;;
46377;SDS011;32083;47.360;9.650;2023-09-07T06:41:45;12.45;;;11.23;;
46377;SDS011;32083;47.360;9.650;2023-09-07T06:44:11;13.77;;;12.38;;
46377;SDS011;32083;47.360;9.650;2023-09-07T06:46:37;16.33;;;12.50;;
46377;SDS011;32083;47.360;9.650;2023-09-07T06:49:03;13.02;;;11.82;;
46377;SDS011;32083;47.360;9.650;2023-09-07T06:51:32;12.13;;;10.95;;
46377;SDS011;32083;47.360;9.650;2023-09-07T06:53:58;12.52;;;11.32;;
46377;SDS011;32083;47.360;9.650;2023-09-07T06:56:24;13.65;;;12.32;;
46377;SDS011;32083;47.360;9.650;2023-09-07T06:58:52;13.00;;;11.80;;
46377;SDS011;32083;47.360;9.650;2023-09-07T07:01:18;13.00;;;11.35;;
46377;SDS011;32083;47.360;9.650;2023-09-07T07:03:44;13.77;;;11.98;;
46377;SDS011;32083;47.360;9.650;2023-09-07T07:06:10;12.65;;;11.35;;
46377;SDS011;32083;47.360;9.650;2023-09-07T07:08:37;11.10;;;10.10;;
46377;SDS011;32083;47.360;9.650;2023-09-07T07:11:03;11.65;;;10.45;;
46377;SDS011;32083;47.360;9.650;2023-09-07T07:13:28;10.90;;;9.50;;
46377;SDS011;32083;47.360;9.650;2023-09-07T07:15:54;11.73;;;10.43;;
46377;SDS011;32083;47.360;9.650;2023-09-07T07:18:20;11.07;;;10.02;;
46377;SDS011;32083;47.360;9.650;2023-09-07T07:20:48;11.40;;;10.38;;
46377;SDS011;32083;47.360;9.650;2023-09-07T07:23:16;19.65;;;11.80;;
46377;SDS011;32083;47.360;9.650;2023-09-07T07:25:42;11.70;;;10.50;;
46377;SDS011;32083;47.360;9.650;2023-09-07T07:28:08;11.55;;;10.35;;
46377;SDS011;32083;47.360;9.650;2023-09-07T07:30:37;9.93;;;8.82;;
46377;SDS011;32083;47.360;9.650;2023-09-07T07:33:07;10.48;;;9.48;;
46377;SDS011;32083;47.360;9.650;2023-09-07T07:35:33;9.70;;;8.70;;
46377;SDS011;32083;47.360;9.650;2023-09-07T07:38:02;11.07;;;9.98;;
46377;SDS011;32083;47.360;9.650;2023-09-07T07:40:29;9.95;;;9.05;;
46377;SDS011;32083;47.360;9.650;2023-09-07T07:42:56;9.15;;;8.25;;
46377;SDS011;32083;47.360;9.650;2023-09-07T07:45:22;10.95;;;8.65;;
46377;SDS011;32083;47.360;9.650;2023-09-07T07:47:51;10.27;;;9.27;;
46377;SDS011;32083;47.360;9.650;2023-09-07T07:50:18;10.13;;;8.95;;
46377;SDS011;32083;47.360;9.650;2023-09-07T07:52:44;9.90;;;9.00;;
46377;SDS011;32083;47.360;9.650;2023-09-07T07:55:11;10.23;;;9.40;;
46377;SDS011;32083;47.360;9.650;2023-09-07T07:57:37;13.93;;;10.65;;
46377;SDS011;32083;47.360;9.650;2023-09-07T08:00:04;9.20;;;8.40;;
46377;SDS011;32083;47.360;9.650;2023-09-07T08:02:30;9.70;;;8.52;;
46377;SDS011;32083;47.360;9.650;2023-09-07T08:04:57;10.85;;;9.80;;
46377;SDS011;32083;47.360;9.650;2023-09-07T08:07:24;10.05;;;8.90;;
46377;SDS011;32083;47.360;9.650;2023-09-07T08:09:51;10.27;;;9.27;;
46377;SDS011;32083;47.360;9.650;2023-09-07T08:12:17;10.85;;;9.48;;
46377;SDS011;32083;47.360;9.650;2023-09-07T08:14:43;11.38;;;9.55;;
46377;SDS011;32083;47.360;9.650;2023-09-07T08:17:09;9.50;;;8.57;;
46377;SDS011;32083;47.360;9.650;2023-09-07T08:19:35;9.52;;;8.68;;
46377;SDS011;32083;47.360;9.650;2023-09-07T08:22:04;10.57;;;9.48;;
46377;SDS011;32083;47.360;9.650;2023-09-07T08:24:30;10.23;;;9.23;;
46377;SDS011;32083;47.360;9.650;2023-09-07T08:26:57;9.98;;;8.98;;
46377;SDS011;32083;47.360;9.650;2023-09-07T08:29:25;10.90;;;9.05;;
46377;SDS011;32083;47.360;9.650;2023-09-07T08:31:55;9.90;;;8.60;;
46377;SDS011;32083;47.360;9.650;2023-09-07T08:34:28;10.85;;;8.40;;
46377;SDS011;32083;47.360;9.650;2023-09-07T08:36:54;9.57;;;7.63;;
46377;SDS011;32083;47.360;9.650;2023-09-07T08:39:24;9.10;;;8.20;;
46377;SDS011;32083;47.360;9.650;2023-09-07T08:41:50;8.30;;;7.50;;
46377;SDS011;32083;47.360;9.650;2023-09-07T08:44:17;9.43;;;8.52;;
46377;SDS011;32083;47.360;9.650;2023-09-07T09:41:30;9.13;;;8.13;;
46377;SDS011;32083;47.360;9.650;2023-09-07T09:54:34;10.75;;;9.70;;
46377;SDS011;32083;47.360;9.650;2023-09-07T09:57:01;11.43;;;9.50;;
46377;SDS011;32083;47.360;9.650;2023-09-07T09:59:27;10.32;;;9.25;;
46377;SDS011;32083;47.360;9.650;2023-09-07T10:01:54;13.85;;;10.02;;
46377;SDS011;32083;47.360;9.650;2023-09-07T10:04:22;11.90;;;9.23;;
46377;SDS011;32083;47.360;9.650;2023-09-07T10:09:28;12.85;;;9.75;;
46377;SDS011;32083;47.360;9.650;2023-09-07T10:11:57;13.52;;;9.68;;
46377;SDS011;32083;47.360;9.650;2023-09-07T10:14:24;9.88;;;8.85;;
46377;SDS011;32083;47.360;9.650;2023-09-07T10:16:51;10.98;;;8.85;;
46377;SDS011;32083;47.360;9.650;2023-09-07T10:19:21;10.90;;;9.80;;
46377;SDS011;32083;47.360;9.650;2023-09-07T10:21:49;9.80;;;8.75;;
46377;SDS011;32083;47.360;9.650;2023-09-07T10:24:27;11.27;;;10.02;;
46377;SDS011;32083;47.360;9.650;2023-09-07T10:26:59;14.20;;;10.15;;
46377;SDS011;32083;47.360;9.650;2023-09-07T10:29:27;12.07;;;10.82;;
46377;SDS011;32083;47.360;9.650;2023-09-07T10:31:53;12.23;;;8.65;;
46377;SDS011;32083;47.360;9.650;2023-09-07T10:34:19;10.43;;;9.32;;
46377;SDS011;32083;47.360;9.650;2023-09-07T10:36:47;10.20;;;9.02;;
46377;SDS011;32083;47.360;9.650;2023-09-07T10:39:16;14.80;;;8.82;;
46377;SDS011;32083;47.360;9.650;2023-09-07T10:41:42;11.20;;;10.02;;
46377;SDS011;32083;47.360;9.650;2023-09-07T10:44:09;13.98;;;10.20;;
46377;SDS011;32083;47.360;9.650;2023-09-07T10:46:39;9.82;;;8.25;;
46377;SDS011;32083;47.360;9.650;2023-09-07T10:49:08;10.07;;;8.43;;
46377;SDS011;32083;47.360;9.650;2023-09-07T10:51:41;9.10;;;8.13;;
46377;SDS011;32083;47.360;9.650;2023-09-07T10:54:21;11.38;;;8.93;;
46377;SDS011;32083;47.360;9.650;2023-09-07T10:56:48;11.95;;;9.23;;
46377;SDS011;32083;47.360;9.650;2023-09-07T10:59:16;9.88;;;8.98;;
46377;SDS011;32083;47.360;9.650;2023-09-07T11:01:45;9.18;;;8.30;;
46377;SDS011;32083;47.360;9.650;2023-09-07T11:04:12;9.82;;;8.82;;
46377;SDS011;32083;47.360;9.650;2023-09-07T11:06:39;9.00;;;8.10;;
46377;SDS011;32083;47.360;9.650;2023-09-07T11:09:06;9.00;;;7.60;;
46377;SDS011;32083;47.360;9.650;2023-09-07T11:11:34;12.55;;;8.07;;
46377;SDS011;32083;47.360;9.650;2023-09-07T11:14:02;8.63;;;7.75;;
46377;SDS011;32083;47.360;9.650;2023-09-07T11:16:29;9.75;;;8.75;;
46377;SDS011;32083;47.360;9.650;2023-09-07T11:18:56;11.32;;;8.25;;
46377;SDS011;32083;47.360;9.650;2023-09-07T11:21:23;9.93;;;8.48;;
46377;SDS011;32083;47.360;9.650;2023-09-07T11:23:50;8.93;;;7.57;;
46377;SDS011;32083;47.360;9.650;2023-09-07T11:26:16;8.82;;;7.90;;
46377;SDS011;32083;47.360;9.650;2023-09-07T11:28:45;8.60;;;7.70;;
46377;SDS011;32083;47.360;9.650;2023-09-07T11:31:11;8.57;;;7.78;;
46377;SDS011;32083;47.360;9.650;2023-09-07T11:33:37;8.40;;;7.60;;
46377;SDS011;32083;47.360;9.650;2023-09-07T11:36:04;9.32;;;8.35;;
46377;SDS011;32083;47.360;9.650;2023-09-07T11:38:34;10.57;;;8.10;;
46377;SDS011;32083;47.360;9.650;2023-09-07T11:41:01;8.00;;;7.30;;
46377;SDS011;32083;47.360;9.650;2023-09-07T11:43:27;8.10;;;7.38;;
46377;SDS011;32083;47.360;9.650;2023-09-07T11:45:52;9.02;;;7.38;;
46377;SDS011;32083;47.360;9.650;2023-09-07T11:48:18;9.85;;;8.40;;
46377;SDS011;32083;47.360;9.650;2023-09-07T11:50:44;8.15;;;7.40;;
46377;SDS011;32083;47.360;9.650;2023-09-07T11:53:10;7.97;;;7.28;;
46377;SDS011;32083;47.360;9.650;2023-09-07T11:55:36;8.63;;;7.07;;
46377;SDS011;32083;47.360;9.650;2023-09-07T11:58:03;8.65;;;7.70;;
46377;SDS011;32083;47.360;9.650;2023-09-07T12:00:32;7.60;;;6.90;;
46377;SDS011;32083;47.360;9.650;2023-09-07T12:02:58;8.50;;;7.75;;
46377;SDS011;32083;47.360;9.650;2023-09-07T12:05:24;8.15;;;7.45;;
46377;SDS011;32083;47.360;9.650;2023-09-07T12:07:50;11.43;;;8.13;;
46377;SDS011;32083;47.360;9.650;2023-09-07T12:10:16;9.50;;;7.70;;
46377;SDS011;32083;47.360;9.650;2023-09-07T12:12:42;7.38;;;6.68;;
46377;SDS011;32083;47.360;9.650;2023-09-07T12:15:09;10.43;;;7.75;;
46377;SDS011;32083;47.360;9.650;2023-09-07T12:17:39;9.43;;;8.63;;
46377;SDS011;32083;47.360;9.650;2023-09-07T12:20:05;9.23;;;8.07;;
46377;SDS011;32083;47.360;9.650;2023-09-07T12:22:38;8.70;;;7.80;;
46377;SDS011;32083;47.360;9.650;2023-09-07T12:25:05;11.63;;;8.35;;
46377;SDS011;32083;47.360;9.650;2023-09-07T12:27:35;14.35;;;8.13;;
46377;SDS011;32083;47.360;9.650;2023-09-07T12:30:02;10.48;;;7.32;;
46377;SDS011;32083;47.360;9.650;2023-09-07T12:32:31;10.00;;;6.78;;
46377;SDS011;32083;47.360;9.650;2023-09-07T12:34:58;7.50;;;6.90;;
46377;SDS011;32083;47.360;9.650;2023-09-07T12:37:24;7.15;;;6.45;;
46377;SDS011;32083;47.360;9.650;2023-09-07T12:39:50;7.82;;;6.97;;
46377;SDS011;32083;47.360;9.650;2023-09-07T12:42:17;6.80;;;6.10;;
46377;SDS011;32083;47.360;9.650;2023-09-07T12:44:43;7.60;;;6.25;;
46377;SDS011;32083;47.360;9.650;2023-09-07T12:47:09;7.40;;;6.63;;
46377;SDS011;32083;47.360;9.650;2023-09-07T12:49:35;6.90;;;5.90;;
46377;SDS011;32083;47.360;9.650;2023-09-07T12:52:00;6.28;;;5.22;;
46377;SDS011;32083;47.360;9.650;2023-09-07T12:54:33;7.13;;;6.18;;
46377;SDS011;32083;47.360;9.650;2023-09-07T12:57:00;5.75;;;5.25;;
46377;SDS011;32083;47.360;9.650;2023-09-07T12:59:26;6.70;;;5.32;;
46377;SDS011;32083;47.360;9.650;2023-09-07T13:01:53;9.13;;;6.13;;
46377;SDS011;32083;47.360;9.650;2023-09-07T13:04:21;6.22;;;5.60;;
46377;SDS011;32083;47.360;9.650;2023-09-07T13:06:47;9.43;;;6.10;;
46377;SDS011;32083;47.360;9.650;2023-09-07T13:09:13;6.03;;;5.43;;
46377;SDS011;32083;47.360;9.650;2023-09-07T13:11:38;8.75;;;6.40;;
46377;SDS011;32083;47.360;9.650;2023-09-07T13:14:04;6.03;;;5.50;;
46377;SDS011;32083;47.360;9.650;2023-09-07T13:16:31;8.75;;;5.85;;
46377;SDS011;32083;47.360;9.650;2023-09-07T13:18:57;9.52;;;5.05;;
46377;SDS011;32083;47.360;9.650;2023-09-07T13:21:24;7.25;;;5.45;;
46377;SDS011;32083;47.360;9.650;2023-09-07T13:23:49;6.43;;;5.72;;
46377;SDS011;32083;47.360;9.650;2023-09-07T13:26:15;5.90;;;5.40;;
46377;SDS011;32083;47.360;9.650;2023-09-07T13:28:41;7.70;;;6.85;;
46377;SDS011;32083;47.360;9.650;2023-09-07T13:31:06;9.10;;;6.07;;
46377;SDS011;32083;47.360;9.650;2023-09-07T13:33:41;7.15;;;6.40;;
46377;SDS011;32083;47.360;9.650;2023-09-07T13:36:07;9.80;;;6.78;;
46377;SDS011;32083;47.360;9.650;2023-09-07T13:38:34;7.20;;;6.60;;
46377;SDS011;32083;47.360;9.650;2023-09-07T13:41:00;7.22;;;6.43;;
46377;SDS011;32083;47.360;9.650;2023-09-07T13:43:26;7.30;;;6.70;;
46377;SDS011;32083;47.360;9.650;2023-09-07T13:45:52;7.55;;;6.82;;
46377;SDS011;32083;47.360;9.650;2023-09-07T13:48:18;8.90;;;6.15;;
46377;SDS011;32083;47.360;9.650;2023-09-07T13:50:43;9.93;;;6.72;;
46377;SDS011;32083;47.360;9.650;2023-09-07T13:53:09;8.10;;;7.15;;
46377;SDS011;32083;47.360;9.650;2023-09-07T13:55:35;7.63;;;6.70;;
46377;SDS011;32083;47.360;9.650;2023-09-07T13:58:08;7.93;;;6.63;;
46377;SDS011;32083;47.360;9.650;2023-09-07T14:00:34;8.95;;;7.25;;
46377;SDS011;32083;47.360;9.650;2023-09-07T14:02:59;7.00;;;6.40;;
46377;SDS011;32083;47.360;9.650;2023-09-07T14:05:25;7.50;;;6.80;;
46377;SDS011;32083;47.360;9.650;2023-09-07T14:07:51;8.68;;;7.80;;
46377;SDS011;32083;47.360;9.650;2023-09-07T14:10:16;8.77;;;7.43;;
46377;SDS011;32083;47.360;9.650;2023-09-07T14:12:42;8.15;;;7.32;;
46377;SDS011;32083;47.360;9.650;2023-09-07T14:15:09;10.57;;;7.30;;
46377;SDS011;32083;47.360;9.650;2023-09-07T14:17:35;9.77;;;7.20;;
46377;SDS011;32083;47.360;9.650;2023-09-07T14:20:00;8.80;;;8.00;;
46377;SDS011;32083;47.360;9.650;2023-09-07T14:22:26;8.45;;;7.65;;
46377;SDS011;32083;47.360;9.650;2023-09-07T14:24:53;7.85;;;7.15;;
46377;SDS011;32083;47.360;9.650;2023-09-07T14:27:19;10.23;;;7.28;;
46377;SDS011;32083;47.360;9.650;2023-09-07T14:29:44;8.43;;;7.68;;
46377;SDS011;32083;47.360;9.650;2023-09-07T14:32:10;12.52;;;9.30;;
46377;SDS011;32083;47.360;9.650;2023-09-07T14:34:36;9.18;;;7.90;;
46377;SDS011;32083;47.360;9.650;2023-09-07T14:37:02;9.43;;;8.43;;
46377;SDS011;32083;47.360;9.650;2023-09-07T14:39:28;11.18;;;8.57;;
46377;SDS011;32083;47.360;9.650;2023-09-07T14:41:54;8.38;;;7.60;;
46377;SDS011;32083;47.360;9.650;2023-09-07T14:44:20;10.07;;;7.95;;
46377;SDS011;32083;47.360;9.650;2023-09-07T14:46:47;7.60;;;6.95;;
46377;SDS011;32083;47.360;9.650;2023-09-07T14:49:15;9.23;;;7.53;;
46377;SDS011;32083;47.360;9.650;2023-09-07T14:51:46;8.25;;;7.13;;
46377;SDS011;32083;47.360;9.650;2023-09-07T14:54:12;8.02;;;7.20;;
46377;SDS011;32083;47.360;9.650;2023-09-07T14:56:38;9.68;;;7.00;;
46377;SDS011;32083;47.360;9.650;2023-09-07T14:59:05;9.23;;;7.32;;
46377;SDS011;32083;47.360;9.650;2023-09-07T15:01:31;8.88;;;7.97;;
46377;SDS011;32083;47.360;9.650;2023-09-07T15:03:57;7.78;;;7.03;;
46377;SDS011;32083;47.360;9.650;2023-09-07T15:06:23;10.15;;;8.25;;
46377;SDS011;32083;47.360;9.650;2023-09-07T15:08:49;8.77;;;7.32;;
46377;SDS011;32083;47.360;9.650;2023-09-07T15:11:15;8.57;;;7.40;;
46377;SDS011;32083;47.360;9.650;2023-09-07T15:13:41;11.82;;;7.90;;
46377;SDS011;32083;47.360;9.650;2023-09-07T15:16:09;8.35;;;7.65;;
46377;SDS011;32083;47.360;9.650;2023-09-07T15:18:35;8.90;;;7.18;;
46377;SDS011;32083;47.360;9.650;2023-09-07T15:21:02;8.23;;;7.53;;
46377;SDS011;32083;47.360;9.650;2023-09-07T15:23:28;11.30;;;7.65;;
46377;SDS011;32083;47.360;9.650;2023-09-07T15:25:54;11.20;;;7.65;;
46377;SDS011;32083;47.360;9.650;2023-09-07T15:28:20;8.80;;;7.07;;
46377;SDS011;32083;47.360;9.650;2023-09-07T15:30:46;9.25;;;7.13;;
46377;SDS011;32083;47.360;9.650;2023-09-07T15:33:12;8.15;;;7.38;;
46377;SDS011;32083;47.360;9.650;2023-09-07T15:35:38;8.52;;;7.72;;
46377;SDS011;32083;47.360;9.650;2023-09-07T15:38:04;7.68;;;6.97;;
46377;SDS011;32083;47.360;9.650;2023-09-07T15:40:30;7.95;;;6.53;;
46377;SDS011;32083;47.360;9.650;2023-09-07T15:42:55;8.77;;;6.97;;
46377;SDS011;32083;47.360;9.650;2023-09-07T15:45:21;7.45;;;6.78;;
46377;SDS011;32083;47.360;9.650;2023-09-07T15:47:48;7.72;;;7.03;;
46377;SDS011;32083;47.360;9.650;2023-09-07T15:50:14;6.88;;;6.28;;
46377;SDS011;32083;47.360;9.650;2023-09-07T15:52:43;9.15;;;6.72;;
46377;SDS011;32083;47.360;9.650;2023-09-07T15:55:14;7.38;;;6.78;;
46377;SDS011;32083;47.360;9.650;2023-09-07T15:57:40;7.90;;;6.63;;
46377;SDS011;32083;47.360;9.650;2023-09-07T16:00:09;8.18;;;7.00;;
46377;SDS011;32083;47.360;9.650;2023-09-07T16:02:35;8.27;;;7.43;;
46377;SDS011;32083;47.360;9.650;2023-09-07T16:05:02;8.23;;;7.38;;
46377;SDS011;32083;47.360;9.650;2023-09-07T16:07:28;8.85;;;7.10;;
46377;SDS011;32083;47.360;9.650;2023-09-07T16:09:54;7.93;;;6.93;;
46377;SDS011;32083;47.360;9.650;2023-09-07T16:12:20;7.00;;;6.38;;
46377;SDS011;32083;47.360;9.650;2023-09-07T16:14:46;8.20;;;6.57;;
46377;SDS011;32083;47.360;9.650;2023-09-07T16:17:12;13.00;;;8.30;;
46377;SDS011;32083;47.360;9.650;2023-09-07T16:19:38;8.55;;;7.65;;
46377;SDS011;32083;47.360;9.650;2023-09-07T16:22:04;6.88;;;6.30;;
46377;SDS011;32083;47.360;9.650;2023-09-07T16:24:32;7.20;;;6.60;;
46377;SDS011;32083;47.360;9.650;2023-09-07T16:26:58;7.20;;;6.50;;
46377;SDS011;32083;47.360;9.650;2023-09-07T16:29:24;7.20;;;6.57;;
46377;SDS011;32083;47.360;9.650;2023-09-07T16:31:49;7.65;;;6.95;;
46377;SDS011;32083;47.360;9.650;2023-09-07T16:34:15;8.02;;;7.22;;
46377;SDS011;32083;47.360;9.650;2023-09-07T16:36:41;7.50;;;6.80;;
46377;SDS011;32083;47.360;9.650;2023-09-07T16:39:07;7.15;;;6.45;;
46377;SDS011;32083;47.360;9.650;2023-09-07T16:41:33;10.25;;;7.13;;
46377;SDS011;32083;47.360;9.650;2023-09-07T16:44:00;6.53;;;5.93;;
46377;SDS011;32083;47.360;9.650;2023-09-07T16:46:26;7.32;;;6.63;;
46377;SDS011;32083;47.360;9.650;2023-09-07T16:48:52;7.90;;;6.45;;
46377;SDS011;32083;47.360;9.650;2023-09-07T16:51:18;7.38;;;6.78;;
46377;SDS011;32083;47.360;9.650;2023-09-07T16:53:43;7.13;;;6.50;;
46377;SDS011;32083;47.360;9.650;2023-09-07T16:56:09;7.00;;;6.20;;
46377;SDS011;32083;47.360;9.650;2023-09-07T16:58:37;6.82;;;6.22;;
46377;SDS011;32083;47.360;9.650;2023-09-07T17:01:03;7.20;;;6.20;;
46377;SDS011;32083;47.360;9.650;2023-09-07T17:03:30;7.72;;;6.20;;
46377;SDS011;32083;47.360;9.650;2023-09-07T17:05:56;8.13;;;6.47;;
46377;SDS011;32083;47.360;9.650;2023-09-07T17:08:21;7.97;;;7.18;;
46377;SDS011;32083;47.360;9.650;2023-09-07T17:10:47;7.00;;;6.40;;
46377;SDS011;32083;47.360;9.650;2023-09-07T17:13:13;6.68;;;6.18;;
46377;SDS011;32083;47.360;9.650;2023-09-07T17:15:41;7.15;;;6.43;;
46377;SDS011;32083;47.360;9.650;2023-09-07T17:18:07;7.50;;;6.80;;
46377;SDS011;32083;47.360;9.650;2023-09-07T17:20:36;6.53;;;5.93;;
46377;SDS011;32083;47.360;9.650;2023-09-07T17:23:02;6.82;;;5.63;;
46377;SDS011;32083;47.360;9.650;2023-09-07T17:25:28;6.90;;;6.10;;
46377;SDS011;32083;47.360;9.650;2023-09-07T17:28:02;9.25;;;6.88;;
46377;SDS011;32083;47.360;9.650;2023-09-07T17:30:29;6.82;;;6.18;;
46377;SDS011;32083;47.360;9.650;2023-09-07T17:32:58;7.25;;;6.55;;
46377;SDS011;32083;47.360;9.650;2023-09-07T17:35:24;6.68;;;5.90;;
46377;SDS011;32083;47.360;9.650;2023-09-07T17:37:50;7.00;;;6.30;;
46377;SDS011;32083;47.360;9.650;2023-09-07T17:40:16;16.23;;;7.18;;
46377;SDS011;32083;47.360;9.650;2023-09-07T17:42:43;8.07;;;6.35;;
46377;SDS011;32083;47.360;9.650;2023-09-07T17:45:09;6.93;;;6.22;;
46377;SDS011;32083;47.360;9.650;2023-09-07T17:47:35;9.43;;;6.55;;
46377;SDS011;32083;47.360;9.650;2023-09-07T17:50:02;9.95;;;6.82;;
46377;SDS011;32083;47.360;9.650;2023-09-07T17:52:28;7.32;;;6.63;;
46377;SDS011;32083;47.360;9.650;2023-09-07T17:54:54;7.32;;;6.72;;
46377;SDS011;32083;47.360;9.650;2023-09-07T17:57:20;9.20;;;6.75;;
46377;SDS011;32083;47.360;9.650;2023-09-07T17:59:46;8.30;;;6.78;;
46377;SDS011;32083;47.360;9.650;2023-09-07T18:02:19;8.30;;;6.55;;
46377;SDS011;32083;47.360;9.650;2023-09-07T18:04:51;7.30;;;6.55;;
46377;SDS011;32083;47.360;9.650;2023-09-07T18:07:19;8.07;;;6.68;;
46377;SDS011;32083;47.360;9.650;2023-09-07T18:09:46;6.82;;;6.22;;
46377;SDS011;32083;47.360;9.650;2023-09-07T18:12:12;7.43;;;6.80;;
46377;SDS011;32083;47.360;9.650;2023-09-07T18:14:38;7.90;;;6.53;;
46377;SDS011;32083;47.360;9.650;2023-09-07T18:17:04;7.90;;;7.10;;
46377;SDS011;32083;47.360;9.650;2023-09-07T18:19:30;9.55;;;7.07;;
46377;SDS011;32083;47.360;9.650;2023-09-07T18:21:57;8.73;;;6.78;;
46377;SDS011;32083;47.360;9.650;2023-09-07T18:24:23;7.70;;;6.50;;
46377;SDS011;32083;47.360;9.650;2023-09-07T18:26:49;8.25;;;7.05;;
46377;SDS011;32083;47.360;9.650;2023-09-07T18:29:15;7.25;;;6.55;;
46377;SDS011;32083;47.360;9.650;2023-09-07T18:31:42;8.15;;;7.30;;
46377;SDS011;32083;47.360;9.650;2023-09-07T18:34:08;11.57;;;7.32;;
46377;SDS011;32083;47.360;9.650;2023-09-07T18:36:34;7.82;;;6.90;;
46377;SDS011;32083;47.360;9.650;2023-09-07T18:39:00;9.32;;;8.43;;
46377;SDS011;32083;47.360;9.650;2023-09-07T18:41:27;12.32;;;8.23;;
46377;SDS011;32083;47.360;9.650;2023-09-07T18:43:53;12.43;;;7.72;;
46377;SDS011;32083;47.360;9.650;2023-09-07T18:46:19;12.48;;;8.18;;
46377;SDS011;32083;47.360;9.650;2023-09-07T18:48:45;9.63;;;6.80;;
46377;SDS011;32083;47.360;9.650;2023-09-07T18:51:11;9.07;;;8.18;;
46377;SDS011;32083;47.360;9.650;2023-09-07T18:53:37;8.85;;;7.32;;
46377;SDS011;32083;47.360;9.650;2023-09-07T18:56:03;8.88;;;7.78;;
46377;SDS011;32083;47.360;9.650;2023-09-07T18:58:30;11.13;;;8.13;;
46377;SDS011;32083;47.360;9.650;2023-09-07T19:00:57;11.05;;;8.80;;
46377;SDS011;32083;47.360;9.650;2023-09-07T19:03:23;8.13;;;7.32;;
46377;SDS011;32083;47.360;9.650;2023-09-07T19:05:50;9.55;;;8.65;;
46377;SDS011;32083;47.360;9.650;2023-09-07T19:08:16;10.23;;;9.10;;
46377;SDS011;32083;47.360;9.650;2023-09-07T19:10:43;11.40;;;9.55;;
46377;SDS011;32083;47.360;9.650;2023-09-07T19:13:09;10.73;;;9.73;;
46377;SDS011;32083;47.360;9.650;2023-09-07T19:15:36;10.38;;;9.38;;
46377;SDS011;32083;47.360;9.650;2023-09-07T19:18:04;10.18;;;9.10;;
46377;SDS011;32083;47.360;9.650;2023-09-07T19:20:30;11.05;;;9.35;;
46377;SDS011;32083;47.360;9.650;2023-09-07T19:25:26;9.77;;;8.88;;
46377;SDS011;32083;47.360;9.650;2023-09-07T19:27:55;11.30;;;9.23;;
46377;SDS011;32083;47.360;9.650;2023-09-07T19:30:20;8.80;;;8.05;;
46377;SDS011;32083;47.360;9.650;2023-09-07T19:32:46;9.63;;;8.68;;
46377;SDS011;32083;47.360;9.650;2023-09-07T19:35:12;9.52;;;8.63;;
46377;SDS011;32083;47.360;9.650;2023-09-07T19:37:38;10.82;;;9.40;;
46377;SDS011;32083;47.360;9.650;2023-09-07T19:40:04;10.80;;;9.55;;
46377;SDS011;32083;47.360;9.650;2023-09-07T19:42:31;11.45;;;9.85;;
46377;SDS011;32083;47.360;9.650;2023-09-07T19:44:56;12.45;;;11.25;;
46377;SDS011;32083;47.360;9.650;2023-09-07T19:47:22;11.65;;;10.45;;
46377;SDS011;32083;47.360;9.650;2023-09-07T19:49:48;12.05;;;10.95;;